Time;durP1;ratioP1;P1;durP2;ratioP2;P2;SDS_P1;SDS_P2;PMS_P1;PMS_P2;Temp;Humidity;BMP_temperature;BMP_pressure;BME280_temperature;BME280_humidity;BME280_pressure;Samples;Min_cycle;Max_cycle;Signal;HPM_P1;HPM_P2
2021/04/26 00:00:55;;;;;;;3.90;2.58;;;;;;;1.82;67.67;93105.34;2097741;28;20054;-86
2021/04/26 00:01:55;;;;;;;3.42;2.35;;;;;;;1.81;67.86;93098.56;2106754;28;20040;-86
2021/04/26 00:03:00;;;;;;;3.45;2.40;;;;;;;1.86;66.94;93090.34;2097984;28;20493;-86
2021/04/26 00:04:01;;;;;;;6.15;2.45;;;;;;;1.83;67.11;93093.69;2090108;28;20792;-86
2021/04/26 00:05:04;;;;;;;3.55;2.42;;;;;;;1.81;66.98;93090.66;2097250;28;20536;-86
2021/04/26 00:06:05;;;;;;;3.42;2.20;;;;;;;1.71;68.74;93092.03;2090369;28;20029;-85
2021/04/26 00:07:06;;;;;;;2.78;2.50;;;;;;;1.68;68.97;93085.63;2081693;28;20450;-84
2021/04/26 00:08:06;;;;;;;3.58;2.45;;;;;;;1.61;69.97;93090.81;2090932;28;20024;-86
2021/04/26 00:09:07;;;;;;;2.85;2.25;;;;;;;1.56;68.13;93095.66;2106710;28;20024;-86
2021/04/26 00:10:09;;;;;;;3.67;2.30;;;;;;;1.46;68.29;93094.41;2098201;28;20016;-84
2021/04/26 00:11:10;;;;;;;2.78;2.40;;;;;;;1.58;68.49;93093.41;2091573;28;20110;-85
2021/04/26 00:12:10;;;;;;;2.80;2.50;;;;;;;1.60;68.12;93088.53;2089818;28;20025;-84
2021/04/26 00:13:11;;;;;;;4.40;2.30;;;;;;;1.49;69.66;93085.78;2091614;28;20075;-86
2021/04/26 00:14:12;;;;;;;2.50;2.30;;;;;;;1.52;68.62;93082.44;2089914;28;20020;-85
2021/04/26 00:15:25;;;;;;;4.05;2.22;;;;;;;1.48;68.66;93087.66;2091467;28;20025;-86
2021/04/26 00:16:25;;;;;;;4.57;2.80;;;;;;;1.38;69.69;93082.28;2096332;28;20028;-86
2021/04/26 00:17:26;;;;;;;3.17;2.30;;;;;;;1.45;68.88;93085.00;2093825;28;20848;-86
2021/04/26 00:18:27;;;;;;;4.32;2.47;;;;;;;1.46;69.44;93083.88;2102595;28;20032;-85
2021/04/26 00:19:27;;;;;;;3.47;2.40;;;;;;;1.42;69.66;93080.44;2098037;28;20031;-86
2021/04/26 00:20:30;;;;;;;3.60;2.35;;;;;;;1.44;68.94;93081.59;2102157;28;20484;-86
2021/04/26 00:21:31;;;;;;;3.95;2.38;;;;;;;1.45;68.48;93069.19;2094459;28;20123;-86
2021/04/26 00:22:32;;;;;;;2.92;2.50;;;;;;;1.49;69.58;93078.66;2098186;28;20025;-87
2021/04/26 00:23:32;;;;;;;3.35;2.65;;;;;;;1.58;68.74;93072.31;2102644;28;20083;-84
2021/04/26 00:24:33;;;;;;;3.60;2.47;;;;;;;1.51;68.82;93073.00;2086105;28;20087;-85
2021/04/26 00:25:34;;;;;;;3.35;2.60;;;;;;;1.49;70.42;93069.97;2089812;28;20100;-86
2021/04/26 00:26:35;;;;;;;4.93;2.85;;;;;;;1.34;68.45;93076.94;2106487;28;20160;-85
2021/04/26 00:27:37;;;;;;;2.97;2.67;;;;;;;1.39;69.68;93074.00;2097641;28;20025;-85
2021/04/26 00:28:38;;;;;;;3.13;2.25;;;;;;;1.27;69.96;93063.69;2098173;28;20020;-85
2021/04/26 00:29:39;;;;;;;3.97;2.88;;;;;;;1.26;69.13;93067.44;2089907;28;20031;-84
2021/04/26 00:30:39;;;;;;;2.80;2.47;;;;;;;1.27;69.36;93061.06;2098063;28;20024;-86
2021/04/26 00:31:40;;;;;;;4.65;2.38;;;;;;;1.29;69.56;93061.47;2089862;28;20021;-84
2021/04/26 00:32:41;;;;;;;3.60;2.45;;;;;;;1.22;70.36;93050.84;2103835;28;20027;-86
2021/04/26 00:33:42;;;;;;;3.15;2.60;;;;;;;1.26;70.45;93056.91;2097984;28;20025;-85
2021/04/26 00:34:42;;;;;;;3.22;2.50;;;;;;;1.31;69.95;93053.97;2104069;28;20469;-86
2021/04/26 00:35:43;;;;;;;3.10;2.10;;;;;;;1.35;69.89;93060.03;2106466;28;20023;-86
2021/04/26 00:36:44;;;;;;;2.72;2.40;;;;;;;1.36;69.55;93055.53;2089766;28;20027;-86
2021/04/26 00:37:46;;;;;;;4.13;2.40;;;;;;;1.44;69.25;93057.88;2089727;28;20028;-85
2021/04/26 00:38:47;;;;;;;4.20;2.75;;;;;;;1.42;69.75;93060.13;2090275;28;20090;-85
2021/04/26 00:39:47;;;;;;;3.50;2.40;;;;;;;1.41;69.48;93063.13;2093568;28;20519;-87
2021/04/26 00:40:48;;;;;;;3.38;2.47;;;;;;;1.30;70.08;93054.34;2099615;28;20054;-86
2021/04/26 00:41:49;;;;;;;4.13;2.60;;;;;;;1.22;69.00;93056.88;2096547;28;20032;-86
2021/04/26 00:42:51;;;;;;;3.90;2.45;;;;;;;1.25;69.85;93055.41;2097845;28;20468;-86
2021/04/26 00:43:52;;;;;;;4.00;2.65;;;;;;;1.16;70.42;93057.56;2100964;28;20016;-86
2021/04/26 00:44:53;;;;;;;4.75;2.70;;;;;;;1.16;70.45;93060.19;2103967;28;20020;-85
2021/04/26 00:45:54;;;;;;;3.38;2.78;;;;;;;1.18;70.03;93063.22;2097406;28;20692;-86
2021/04/26 00:46:54;;;;;;;2.75;2.40;;;;;;;1.27;69.62;93063.69;2096258;28;20095;-86
2021/04/26 00:47:55;;;;;;;3.35;2.25;;;;;;;1.06;70.10;93073.97;2105243;28;20349;-85
2021/04/26 00:48:56;;;;;;;2.70;2.50;;;;;;;1.06;70.56;93063.44;2098002;28;20067;-85
2021/04/26 00:49:56;;;;;;;3.38;2.38;;;;;;;1.06;70.80;93060.81;2097255;28;20118;-85
2021/04/26 00:50:57;;;;;;;2.72;2.53;;;;;;;1.10;71.07;93066.84;2106320;28;20031;-85
2021/04/26 00:51:58;;;;;;;3.72;2.50;;;;;;;1.08;70.54;93064.59;2105965;28;20435;-85
2021/04/26 00:53:02;;;;;;;5.65;2.40;;;;;;;1.04;71.15;93063.03;2089831;28;20029;-85
2021/04/26 00:54:03;;;;;;;2.95;2.60;;;;;;;1.03;70.83;93058.88;2093848;28;20029;-85
2021/04/26 00:55:05;;;;;;;3.30;2.15;;;;;;;1.04;70.83;93061.16;2089581;28;20093;-84
2021/04/26 00:56:06;;;;;;;3.00;2.50;;;;;;;1.06;70.79;93052.91;2089946;28;20021;-86
2021/04/26 00:57:07;;;;;;;2.85;2.17;;;;;;;1.09;70.63;93049.56;2106224;28;20110;-85
2021/04/26 00:58:09;;;;;;;3.95;2.47;;;;;;;1.05;71.16;93056.66;2107358;28;20435;-84
2021/04/26 00:59:10;;;;;;;4.82;2.38;;;;;;;0.93;70.95;93047.88;2104843;28;20024;-85
2021/04/26 01:00:12;;;;;;;2.85;2.53;;;;;;;0.97;70.81;93058.44;2093795;28;20032;-85
2021/04/26 01:01:12;;;;;;;5.75;2.40;;;;;;;0.93;71.80;93049.75;2092364;28;20078;-85
2021/04/26 01:02:13;;;;;;;4.35;2.67;;;;;;;1.03;71.38;93049.13;2087876;28;20033;-85
2021/04/26 01:03:14;;;;;;;2.83;2.47;;;;;;;0.97;70.98;93048.69;2099363;28;20095;-86
2021/04/26 01:04:14;;;;;;;3.90;2.28;;;;;;;0.99;70.78;93051.69;2112485;28;20088;-86
2021/04/26 01:05:22;;;;;;;4.97;2.97;;;;;;;0.82;72.29;93041.69;2097563;28;20020;-84
2021/04/26 01:06:22;;;;;;;2.85;2.28;;;;;;;0.89;71.49;93047.06;2093223;28;20021;-85
2021/04/26 01:07:23;;;;;;;3.55;2.20;;;;;;;0.85;70.90;93043.63;2089686;28;20493;-85
2021/04/26 01:08:24;;;;;;;3.30;2.33;;;;;;;0.85;70.95;93043.63;2092700;28;20050;-86
2021/04/26 01:09:25;;;;;;;2.80;2.45;;;;;;;0.88;71.37;93040.28;2101680;28;20020;-86
2021/04/26 01:10:29;;;;;;;3.08;2.60;;;;;;;0.89;71.30;93035.78;2097637;28;20107;-86
2021/04/26 01:11:45;;;;;;;3.20;2.60;;;;;;;0.85;71.72;93035.72;2098140;28;20024;-86
2021/04/26 01:13:04;;;;;;;4.10;2.72;;;;;;;0.94;71.50;93025.69;2095518;28;20055;-85
2021/04/26 01:14:28;;;;;;;3.92;2.55;;;;;;;0.96;71.26;93028.72;2095102;28;20071;-86
2021/04/26 01:15:47;;;;;;;2.42;2.22;;;;;;;0.97;71.34;93025.00;2096898;28;20106;-86
2021/04/26 01:16:55;;;;;;;4.47;2.42;;;;;;;0.96;70.08;93026.09;2091845;28;20087;-85
2021/04/26 01:18:00;;;;;;;3.55;2.30;;;;;;;0.92;71.49;93022.69;2083066;28;20064;-85
2021/04/26 01:19:25;;;;;;;3.92;2.67;;;;;;;0.95;70.73;93019.31;2082414;28;20025;-86
2021/04/26 01:20:47;;;;;;;3.60;2.40;;;;;;;1.01;69.94;93025.03;2092628;28;20020;-84
2021/04/26 01:22:05;;;;;;;3.55;2.15;;;;;;;1.00;69.69;93021.63;2087196;28;20505;-85
2021/04/26 01:23:26;;;;;;;5.55;2.85;;;;;;;0.98;70.07;93018.59;2086439;28;20029;-86
2021/04/26 01:24:37;;;;;;;3.92;2.85;;;;;;;1.02;69.90;93023.91;2094860;28;20024;-85
2021/04/26 01:25:40;;;;;;;4.60;2.90;;;;;;;1.23;68.59;93028.69;2100260;28;20028;-84
2021/04/26 01:27:09;;;;;;;2.88;2.55;;;;;;;1.13;69.15;93024.78;2100609;28;20122;-86
2021/04/26 01:28:22;;;;;;;3.95;2.65;;;;;;;1.12;69.09;93022.53;2102379;28;20024;-84
2021/04/26 01:29:51;;;;;;;3.58;2.60;;;;;;;1.10;69.41;93024.75;2097748;28;20508;-85
2021/04/26 01:30:59;;;;;;;2.90;2.53;;;;;;;1.13;69.54;93008.25;2097112;28;20020;-84
2021/04/26 01:32:18;;;;;;;4.13;2.47;;;;;;;1.22;68.97;93011.34;2098516;28;20079;-86
2021/04/26 01:33:21;;;;;;;4.40;2.28;;;;;;;1.34;67.68;93018.28;2091976;28;20025;-84
2021/04/26 01:34:28;;;;;;;5.18;2.50;;;;;;;1.40;67.24;93007.03;2090002;28;20465;-84
2021/04/26 01:35:31;;;;;;;3.72;2.80;;;;;;;1.42;67.30;93010.09;2090333;28;20589;-85
2021/04/26 01:36:32;;;;;;;3.65;2.53;;;;;;;1.49;67.38;93012.81;2089713;28;20025;-85
2021/04/26 01:37:35;;;;;;;3.38;2.58;;;;;;;1.47;66.60;93009.75;2089438;28;20051;-85
2021/04/26 01:38:40;;;;;;;3.92;2.33;;;;;;;1.46;67.94;93016.16;2089696;28;20025;-86
2021/04/26 01:39:43;;;;;;;4.32;2.83;;;;;;;1.56;67.27;93021.91;2089567;28;20016;-85
2021/04/26 01:40:46;;;;;;;2.97;2.33;;;;;;;1.51;66.60;93026.38;2081700;28;20407;-86
2021/04/26 01:41:47;;;;;;;3.75;2.55;;;;;;;1.52;66.07;93021.84;2089685;28;20025;-84
2021/04/26 01:42:52;;;;;;;4.22;2.15;;;;;;;1.50;66.85;93024.84;2097708;28;20020;-85
2021/04/26 01:43:55;;;;;;;3.88;2.20;;;;;;;1.55;66.01;93030.91;2103419;28;20101;-85
2021/04/26 01:44:58;;;;;;;5.05;2.70;;;;;;;1.57;66.12;93028.66;2101940;28;20731;-85
2021/04/26 01:46:02;;;;;;;2.85;2.35;;;;;;;1.62;66.49;93030.97;2106094;28;20038;-85
2021/04/26 01:47:06;;;;;;;4.75;2.40;;;;;;;1.64;65.45;93028.75;2090055;28;20029;-85
2021/04/26 01:48:07;;;;;;;3.47;2.45;;;;;;;1.65;65.46;93028.38;2097674;28;20762;-85
2021/04/26 01:49:08;;;;;;;4.47;2.42;;;;;;;1.51;67.69;93034.25;2089185;28;20029;-85
2021/04/26 01:50:10;;;;;;;3.65;2.60;;;;;;;1.51;66.41;93030.88;2097489;28;20024;-85
2021/04/26 01:51:12;;;;;;;2.95;2.63;;;;;;;1.49;66.75;93033.09;2089769;28;20107;-85
2021/04/26 01:52:14;;;;;;;3.67;2.90;;;;;;;1.46;66.86;93024.06;2088897;28;20021;-85
2021/04/26 01:53:16;;;;;;;4.25;2.53;;;;;;;1.42;68.18;93028.53;2097632;28;20504;-85
2021/04/26 01:54:18;;;;;;;4.03;2.30;;;;;;;1.42;67.24;93025.88;2103954;28;20105;-85
2021/04/26 01:55:22;;;;;;;2.65;2.10;;;;;;;1.45;67.62;93025.19;2105970;28;20028;-86
2021/04/26 01:56:23;;;;;;;3.75;2.50;;;;;;;1.35;68.14;93031.06;2097743;28;20021;-85
2021/04/26 01:57:27;;;;;;;5.03;2.67;;;;;;;1.31;67.53;93027.63;2089354;28;20036;-85
2021/04/26 01:58:29;;;;;;;2.55;2.35;;;;;;;1.28;68.59;93025.75;2094721;28;20188;-85
2021/04/26 01:59:32;;;;;;;6.00;2.40;;;;;;;1.31;67.84;93025.00;2097487;28;20036;-85
2021/04/26 02:00:34;;;;;;;3.22;2.67;;;;;;;1.32;68.31;93016.00;2093917;28;20028;-85
2021/04/26 02:01:36;;;;;;;3.75;2.30;;;;;;;1.30;67.94;93012.22;2097443;28;20052;-84
2021/04/26 02:02:37;;;;;;;2.92;2.45;;;;;;;1.33;68.30;93017.50;2097216;28;20401;-86
2021/04/26 02:04:50;;;;;;;2.97;2.65;;;;;;;1.31;68.88;93013.72;2148265;27;20557;-86
2021/04/26 02:05:54;;;;;;;2.85;2.20;;;;;;;1.33;67.58;93006.97;2118777;28;20532;-86
2021/04/26 02:06:56;;;;;;;4.57;2.70;;;;;;;1.31;68.48;93008.44;2112154;28;20028;-86
2021/04/26 02:07:57;;;;;;;4.22;2.80;;;;;;;1.22;69.71;93003.47;2103994;28;20024;-86
2021/04/26 02:09:00;;;;;;;4.05;2.70;;;;;;;1.06;70.79;93006.31;2100947;28;20024;-87
2021/04/26 02:10:01;;;;;;;3.50;2.60;;;;;;;1.13;70.81;93016.16;2112879;28;20031;-85
2021/04/26 02:11:02;;;;;;;4.55;2.55;;;;;;;1.11;69.99;93005.97;2113269;28;20462;-86
2021/04/26 02:12:04;;;;;;;2.72;2.38;;;;;;;1.17;68.79;93019.56;2104658;28;20032;-86
2021/04/26 02:13:06;;;;;;;2.72;2.40;;;;;;;1.04;69.99;93013.03;2113063;28;20024;-86
2021/04/26 02:14:10;;;;;;;6.60;2.60;;;;;;;1.06;68.79;93008.19;2104692;28;20488;-85
2021/04/26 02:15:17;;;;;;;3.78;2.65;;;;;;;1.00;69.32;93002.44;2104504;28;20084;-86
2021/04/26 02:16:18;;;;;;;4.53;2.50;;;;;;;1.08;70.23;93000.66;2097487;28;20021;-86
2021/04/26 02:17:20;;;;;;;4.40;2.80;;;;;;;1.04;69.96;92995.34;2104485;28;20560;-87
2021/04/26 02:18:22;;;;;;;3.92;2.47;;;;;;;1.01;69.76;93004.00;2098873;28;20024;-86
2021/04/26 02:19:22;;;;;;;3.67;3.00;;;;;;;1.00;70.91;92995.31;2107668;28;20123;-86
2021/04/26 02:20:23;;;;;;;3.15;2.78;;;;;;;1.14;69.52;92991.34;2107436;28;20560;-87
2021/04/26 02:21:23;;;;;;;2.95;2.60;;;;;;;1.15;69.78;92998.13;2101581;28;20432;-86
2021/04/26 02:22:25;;;;;;;4.43;2.67;;;;;;;1.10;69.66;92995.78;2103386;28;20028;-85
2021/04/26 02:23:27;;;;;;;4.22;2.53;;;;;;;1.11;69.28;92992.06;2104661;28;20133;-87
2021/04/26 02:24:27;;;;;;;2.65;2.45;;;;;;;1.15;69.00;92998.13;2104432;28;20115;-86
2021/04/26 02:25:28;;;;;;;4.20;2.40;;;;;;;1.11;69.17;92994.69;2096156;28;20025;-87
2021/04/26 02:26:29;;;;;;;3.45;2.55;;;;;;;1.04;69.64;92991.97;2104466;28;20024;-86
2021/04/26 02:27:29;;;;;;;3.10;2.22;;;;;;;1.05;69.51;92988.97;2096220;28;20107;-86
2021/04/26 02:28:31;;;;;;;2.95;2.10;;;;;;;1.08;69.92;92992.78;2104278;28;20057;-86
2021/04/26 02:29:31;;;;;;;3.75;2.35;;;;;;;0.99;69.86;92983.28;2092091;28;20025;-86
2021/04/26 02:30:33;;;;;;;3.25;2.72;;;;;;;0.97;69.35;92982.88;2087872;28;20025;-86
2021/04/26 02:31:35;;;;;;;3.22;2.60;;;;;;;0.93;70.74;92979.47;2096279;28;20029;-86
2021/04/26 02:32:47;;;;;;;2.83;2.53;;;;;;;0.89;70.34;92983.16;2096587;28;20084;-87
2021/04/26 02:33:55;;;;;;;5.10;2.47;;;;;;;0.86;70.57;92978.59;2097570;28;20024;-86
2021/04/26 02:34:59;;;;;;;5.65;2.80;;;;;;;0.85;70.68;92977.84;2106322;28;20036;-86
2021/04/26 02:36:07;;;;;;;3.25;2.30;;;;;;;0.92;69.66;92974.53;2112539;28;20115;-86
2021/04/26 02:37:31;;;;;;;4.10;2.97;;;;;;;0.92;71.31;92969.28;2098088;28;20379;-86
2021/04/26 02:38:36;;;;;;;3.95;2.40;;;;;;;0.97;70.21;92961.09;2101126;28;20468;-86
2021/04/26 02:39:38;;;;;;;2.85;2.50;;;;;;;0.98;70.21;92962.59;2105023;28;20036;-87
2021/04/26 02:40:50;;;;;;;4.00;2.72;;;;;;;0.85;69.65;92963.94;2104863;28;20115;-86
2021/04/26 02:41:51;;;;;;;3.38;2.28;;;;;;;0.78;71.18;92961.97;2105667;28;20036;-85
2021/04/26 02:42:55;;;;;;;3.92;2.33;;;;;;;0.82;70.52;92957.50;2097392;28;20115;-86
2021/04/26 02:44:03;;;;;;;2.88;2.40;;;;;;;0.84;71.09;92955.28;2096735;28;20036;-86
2021/04/26 02:45:07;;;;;;;4.10;2.22;;;;;;;0.88;71.52;92953.47;2104392;28;20032;-86
2021/04/26 02:46:08;;;;;;;2.80;2.53;;;;;;;0.82;71.25;92952.25;2108606;28;20028;-87
2021/04/26 02:47:13;;;;;;;4.10;2.67;;;;;;;0.85;70.71;92948.16;2103269;28;20436;-86
2021/04/26 02:48:14;;;;;;;2.47;2.10;;;;;;;0.84;70.68;92947.41;2095431;28;20071;-85
2021/04/26 02:49:16;;;;;;;3.17;2.10;;;;;;;0.90;70.63;92945.19;2091604;28;20025;-86
2021/04/26 02:50:22;;;;;;;2.75;2.53;;;;;;;0.88;69.53;92948.19;2089654;28;20040;-86
2021/04/26 02:51:27;;;;;;;2.50;2.30;;;;;;;0.86;70.01;92942.53;2097824;28;20090;-86
2021/04/26 02:52:28;;;;;;;3.97;2.40;;;;;;;0.88;70.01;92942.94;2096212;28;20489;-86
2021/04/26 02:53:31;;;;;;;4.47;2.15;;;;;;;0.86;69.95;92941.78;2096274;28;20470;-86
2021/04/26 02:54:34;;;;;;;2.75;2.28;;;;;;;0.85;70.97;92942.91;2108928;28;20027;-87
2021/04/26 02:55:36;;;;;;;4.05;2.58;;;;;;;0.93;69.62;92947.13;2112911;28;20042;-85
2021/04/26 02:56:38;;;;;;;3.90;2.50;;;;;;;0.93;70.27;92942.63;2112975;28;20027;-86
2021/04/26 02:57:40;;;;;;;5.45;2.42;;;;;;;0.97;70.48;92950.56;2121547;27;20028;-86
2021/04/26 02:58:45;;;;;;;5.47;2.35;;;;;;;0.96;69.71;92949.78;2112657;28;20063;-86
2021/04/26 02:59:46;;;;;;;4.22;2.30;;;;;;;0.97;70.10;92943.41;2097004;28;20029;-86
2021/04/26 03:00:47;;;;;;;5.35;2.38;;;;;;;0.95;69.24;92942.25;2104193;28;20031;-86
2021/04/26 03:01:48;;;;;;;4.68;2.60;;;;;;;0.92;69.82;92940.31;2095825;28;20166;-86
2021/04/26 03:02:50;;;;;;;4.57;2.30;;;;;;;0.87;69.89;92940.66;2104240;28;20056;-85
2021/04/26 03:03:52;;;;;;;2.65;2.30;;;;;;;0.91;69.38;92947.47;2103863;28;20024;-86
2021/04/26 03:04:54;;;;;;;3.47;2.15;;;;;;;0.89;69.89;92941.81;2102778;28;20170;-87
2021/04/26 03:05:55;;;;;;;3.63;2.22;;;;;;;0.85;69.97;92935.75;2104230;28;20091;-86
2021/04/26 03:06:59;;;;;;;3.63;2.67;;;;;;;0.83;69.44;92945.09;2104407;28;20035;-87
2021/04/26 03:08:00;;;;;;;6.65;2.33;;;;;;;0.77;69.53;92936.78;2112604;28;20050;-86
2021/04/26 03:09:01;;;;;;;4.45;2.38;;;;;;;0.82;70.25;92939.09;2112426;28;20070;-87
2021/04/26 03:10:06;;;;;;;4.13;2.40;;;;;;;0.77;70.82;92933.41;2104286;28;20107;-86
2021/04/26 03:11:12;;;;;;;6.65;2.83;;;;;;;0.81;70.38;92931.56;2113110;28;20047;-86
2021/04/26 03:12:13;;;;;;;4.35;2.40;;;;;;;0.81;71.38;92940.22;2104723;28;20020;-86
2021/04/26 03:13:15;;;;;;;4.05;2.78;;;;;;;0.84;71.66;92936.88;2095783;28;20044;-87
2021/04/26 03:14:19;;;;;;;2.47;2.28;;;;;;;0.78;70.95;92937.53;2095734;28;20027;-87
2021/04/26 03:15:24;;;;;;;3.95;2.47;;;;;;;0.72;71.00;92940.50;2096229;28;20044;-86
2021/04/26 03:16:27;;;;;;;3.42;2.10;;;;;;;0.78;70.19;92932.28;2091213;28;20021;-86
2021/04/26 03:17:28;;;;;;;4.07;2.30;;;;;;;0.77;71.86;92939.41;2090407;28;20025;-87
2021/04/26 03:18:29;;;;;;;2.80;2.28;;;;;;;0.74;70.43;92940.13;2098587;28;20031;-86
2021/04/26 03:19:31;;;;;;;4.45;2.28;;;;;;;0.73;70.58;92938.59;2090495;28;20494;-86
2021/04/26 03:20:32;;;;;;;4.60;2.50;;;;;;;0.74;70.59;92932.22;2090620;28;20036;-86
2021/04/26 03:21:35;;;;;;;2.80;2.20;;;;;;;0.77;70.80;92933.41;2098626;28;20036;-87
2021/04/26 03:22:38;;;;;;;3.38;2.35;;;;;;;0.77;71.24;92926.25;2107290;28;20036;-87
2021/04/26 03:23:41;;;;;;;2.80;2.40;;;;;;;0.76;70.81;92935.28;2098692;28;20029;-86
2021/04/26 03:24:42;;;;;;;4.20;2.42;;;;;;;0.74;70.43;92926.97;2106943;28;20020;-86
2021/04/26 03:25:43;;;;;;;4.57;2.60;;;;;;;0.64;71.68;92930.22;2090039;28;20450;-87
2021/04/26 03:26:46;;;;;;;2.92;2.63;;;;;;;0.72;72.03;92921.31;2098509;28;20459;-87
2021/04/26 03:27:49;;;;;;;3.20;2.28;;;;;;;0.69;71.49;92922.78;2090437;28;20418;-87
2021/04/26 03:28:51;;;;;;;4.10;2.22;;;;;;;0.66;70.89;92928.00;2082309;28;20033;-86
2021/04/26 03:29:53;;;;;;;2.95;2.45;;;;;;;0.69;70.86;92937.81;2090612;28;20024;-86
2021/04/26 03:30:59;;;;;;;5.28;2.28;;;;;;;0.84;69.64;92928.22;2082434;28;20025;-86
2021/04/26 03:32:00;;;;;;;4.25;2.10;;;;;;;0.72;72.10;92929.97;2090971;28;20035;-87
2021/04/26 03:33:01;;;;;;;3.40;2.58;;;;;;;0.66;70.61;92936.66;2090178;28;20045;-87
2021/04/26 03:34:02;;;;;;;3.15;2.35;;;;;;;0.66;71.10;92926.16;2090414;28;20025;-86
2021/04/26 03:35:05;;;;;;;3.90;2.47;;;;;;;0.60;71.32;92929.44;2090369;28;20083;-87
2021/04/26 03:36:06;;;;;;;3.83;2.38;;;;;;;0.60;71.38;92917.03;2098585;28;20487;-86
2021/04/26 03:37:12;;;;;;;3.08;2.17;;;;;;;0.60;71.38;92924.16;2090429;28;20557;-86
2021/04/26 03:38:16;;;;;;;4.60;2.55;;;;;;;0.63;71.33;92923.47;2099949;28;20024;-86
2021/04/26 03:39:16;;;;;;;2.72;2.40;;;;;;;0.64;71.25;92914.44;2100703;28;20036;-86
2021/04/26 03:40:24;;;;;;;3.63;2.20;;;;;;;0.45;72.15;92921.38;2095251;28;20036;-86
2021/04/26 03:41:24;;;;;;;2.92;2.45;;;;;;;0.50;71.81;92915.78;2094063;28;20074;-87
2021/04/26 03:42:26;;;;;;;4.82;2.45;;;;;;;0.46;72.12;92927.38;2100958;28;20537;-85
2021/04/26 03:43:27;;;;;;;7.07;2.30;;;;;;;0.54;72.06;92926.38;2097092;28;20031;-87
2021/04/26 03:44:28;;;;;;;4.25;2.67;;;;;;;0.43;71.84;92923.59;2101332;28;20019;-86
2021/04/26 03:45:28;;;;;;;4.40;2.50;;;;;;;0.40;71.69;92921.69;2107329;28;20079;-86
2021/04/26 03:46:29;;;;;;;5.35;2.20;;;;;;;0.40;72.43;92923.56;2086199;28;20083;-87
2021/04/26 03:47:30;;;;;;;3.28;2.28;;;;;;;0.48;71.71;92923.28;2102562;28;20031;-86
2021/04/26 03:48:31;;;;;;;3.50;2.20;;;;;;;0.33;72.96;92920.81;2115883;28;20038;-86
2021/04/26 03:49:31;;;;;;;3.80;2.38;;;;;;;0.27;72.92;92920.38;2110982;28;20020;-86
2021/04/26 03:50:32;;;;;;;2.35;2.15;;;;;;;0.32;72.86;92924.56;2098959;28;20099;-87
2021/04/26 03:51:33;;;;;;;3.30;2.50;;;;;;;0.28;73.15;92927.16;2088977;28;20080;-86
2021/04/26 03:52:33;;;;;;;5.20;2.28;;;;;;;0.30;73.09;92929.41;2089200;28;20029;-86
2021/04/26 03:53:34;;;;;;;4.85;2.47;;;;;;;0.10;73.89;92932.16;2102267;28;20048;-86
2021/04/26 03:54:35;;;;;;;3.75;2.22;;;;;;;0.19;73.67;92935.28;2094918;28;20062;-86
2021/04/26 03:55:36;;;;;;;3.90;2.30;;;;;;;0.17;73.35;92934.13;2089204;28;20605;-87
2021/04/26 03:56:37;;;;;;;4.43;2.28;;;;;;;0.14;73.49;92935.59;2089685;28;20032;-86
2021/04/26 03:57:38;;;;;;;5.88;2.30;;;;;;;0.14;73.22;92940.09;2089833;28;20139;-87
2021/04/26 03:58:38;;;;;;;2.92;2.05;;;;;;;0.09;74.25;92928.03;2098302;28;20028;-87
2021/04/26 03:59:39;;;;;;;3.80;2.55;;;;;;;0.12;74.34;92929.94;2106499;28;20027;-85
2021/04/26 04:00:40;;;;;;;5.70;2.50;;;;;;;0.03;74.41;92929.41;2111518;28;20412;-85
2021/04/26 04:01:41;;;;;;;2.45;2.25;;;;;;;0.05;74.59;92924.59;2098573;28;20039;-87
2021/04/26 04:02:42;;;;;;;4.05;2.10;;;;;;;0.07;74.24;92932.09;2095085;28;20134;-86
2021/04/26 04:03:42;;;;;;;4.85;2.50;;;;;;;0.09;73.93;92933.28;2094994;28;20669;-86
2021/04/26 04:04:43;;;;;;;2.50;2.30;;;;;;;0.08;74.08;92931.75;2097561;28;20044;-86
2021/04/26 04:05:45;;;;;;;6.47;2.40;;;;;;;-0.04;74.69;92926.72;2100842;28;20025;-86
2021/04/26 04:06:46;;;;;;;3.05;2.25;;;;;;;-0.05;74.63;92931.19;2112516;28;20028;-85
2021/04/26 04:07:46;;;;;;;3.03;2.17;;;;;;;-0.03;74.73;92923.72;2096245;28;20397;-86
2021/04/26 04:08:48;;;;;;;3.78;2.30;;;;;;;0.04;74.08;92920.41;2087538;28;20111;-85
2021/04/26 04:09:50;;;;;;;3.40;2.60;;;;;;;-0.16;75.09;92930.28;2083858;28;20037;-87
2021/04/26 04:10:51;;;;;;;2.55;2.25;;;;;;;-0.12;75.21;92927.72;2104787;28;20412;-87
2021/04/26 04:11:51;;;;;;;3.28;2.42;;;;;;;-0.03;74.10;92928.22;2099851;28;20032;-86
2021/04/26 04:12:52;;;;;;;2.67;2.20;;;;;;;-0.17;75.11;92928.00;2113439;28;20027;-86
2021/04/26 04:13:53;;;;;;;3.15;2.47;;;;;;;-0.09;75.15;92930.38;2106468;28;20032;-85
2021/04/26 04:14:54;;;;;;;7.72;2.78;;;;;;;-0.16;74.03;92938.16;2098367;28;20028;-86
2021/04/26 04:15:54;;;;;;;4.95;2.70;;;;;;;-0.19;75.06;92933.59;2103443;28;20028;-87
2021/04/26 04:16:55;;;;;;;4.72;2.50;;;;;;;-0.05;74.61;92923.28;2086420;28;20029;-86
2021/04/26 04:17:57;;;;;;;2.28;2.08;;;;;;;-0.22;75.55;92934.31;2098124;28;20056;-86
2021/04/26 04:18:58;;;;;;;3.20;2.20;;;;;;;-0.22;75.31;92936.94;2097208;28;20135;-86
2021/04/26 04:19:59;;;;;;;3.88;2.50;;;;;;;-0.22;75.14;92939.56;2089946;28;20445;-86
2021/04/26 04:21:00;;;;;;;2.75;2.22;;;;;;;-0.18;75.14;92935.09;2106472;28;20107;-87
2021/04/26 04:22:01;;;;;;;3.08;1.92;;;;;;;-0.15;75.33;92928.41;2106761;28;20024;-85
2021/04/26 04:23:02;;;;;;;3.40;2.42;;;;;;;-0.24;75.46;92933.13;2089913;28;20032;-86
2021/04/26 04:24:03;;;;;;;5.30;2.45;;;;;;;-0.27;75.44;92932.72;2085234;28;20056;-85
2021/04/26 04:25:05;;;;;;;4.85;2.55;;;;;;;-0.30;76.13;92930.06;2081640;28;20034;-86
2021/04/26 04:26:08;;;;;;;3.50;2.42;;;;;;;-0.18;75.78;92931.72;2098187;28;20384;-86
2021/04/26 04:27:08;;;;;;;4.40;2.28;;;;;;;-0.22;76.45;92936.94;2097869;28;20024;-86
2021/04/26 04:28:09;;;;;;;5.20;2.65;;;;;;;-0.22;75.99;92931.69;2097290;28;20028;-86
2021/04/26 04:29:10;;;;;;;4.47;2.70;;;;;;;-0.24;76.13;92931.28;2097599;28;20028;-86
2021/04/26 04:30:13;;;;;;;6.50;2.42;;;;;;;-0.17;76.40;92928.75;2089859;28;20108;-86
2021/04/26 04:31:13;;;;;;;3.03;2.50;;;;;;;-0.27;76.76;92937.22;2103714;28;20040;-86
2021/04/26 04:32:14;;;;;;;3.67;2.17;;;;;;;-0.23;76.64;92932.78;2097980;28;20489;-86
2021/04/26 04:33:15;;;;;;;4.90;2.40;;;;;;;-0.19;76.15;92932.84;2089799;28;20025;-86
2021/04/26 04:34:16;;;;;;;6.63;2.30;;;;;;;-0.20;76.14;92926.84;2098032;28;20028;-86
2021/04/26 04:35:17;;;;;;;3.22;2.38;;;;;;;-0.18;76.38;92934.34;2097806;28;20032;-85
2021/04/26 04:36:17;;;;;;;5.75;2.50;;;;;;;-0.17;76.57;92931.38;2089671;28;20033;-87
2021/04/26 04:37:18;;;;;;;5.68;2.50;;;;;;;-0.12;75.34;92925.06;2087538;28;20052;-86
2021/04/26 04:38:19;;;;;;;2.83;2.08;;;;;;;-0.07;76.31;92924.78;2083263;28;20049;-86
2021/04/26 04:39:20;;;;;;;2.50;2.30;;;;;;;-0.07;75.46;92927.41;2089636;28;20025;-86
2021/04/26 04:40:20;;;;;;;4.35;2.63;;;;;;;0.00;75.19;92919.63;2106382;28;20028;-86
2021/04/26 04:41:21;;;;;;;4.47;2.60;;;;;;;-0.03;75.92;92926.34;2105747;28;20039;-87
2021/04/26 04:42:22;;;;;;;3.58;2.28;;;;;;;-0.06;76.33;92927.03;2097797;28;20060;-85
2021/04/26 04:43:23;;;;;;;3.10;2.50;;;;;;;-0.03;76.10;92926.34;2095253;28;20043;-85
2021/04/26 04:44:24;;;;;;;4.93;2.30;;;;;;;0.05;75.39;92929.09;2091999;28;20812;-86
2021/04/26 04:45:24;;;;;;;2.85;2.38;;;;;;;0.15;74.98;92931.09;2096661;28;20028;-86
2021/04/26 04:46:26;;;;;;;2.88;2.50;;;;;;;0.09;76.04;92927.25;2096668;28;20082;-86
2021/04/26 04:47:26;;;;;;;4.03;2.60;;;;;;;0.14;74.67;92925.09;2103971;28;20028;-87
2021/04/26 04:48:27;;;;;;;3.17;2.20;;;;;;;0.18;75.16;92928.53;2105064;28;20467;-86
2021/04/26 04:49:28;;;;;;;3.65;2.55;;;;;;;0.20;74.76;92923.66;2085920;28;20382;-85
2021/04/26 04:50:28;;;;;;;3.83;2.45;;;;;;;0.24;75.32;92926.34;2084482;28;20033;-86
2021/04/26 04:51:29;;;;;;;3.33;2.50;;;;;;;0.23;75.71;92925.59;2096495;28;20492;-86
2021/04/26 04:52:30;;;;;;;2.65;2.30;;;;;;;0.29;75.25;92925.28;2105921;28;20034;-86
2021/04/26 04:53:31;;;;;;;3.15;2.33;;;;;;;0.28;75.13;92924.53;2105816;28;20028;-86
2021/04/26 04:54:32;;;;;;;3.80;2.40;;;;;;;0.40;74.95;92926.94;2105997;28;20028;-87
2021/04/26 04:55:33;;;;;;;4.47;2.50;;;;;;;0.43;74.73;92925.47;2097995;28;20034;-86
2021/04/26 04:56:34;;;;;;;5.70;2.53;;;;;;;0.42;74.63;92929.97;2093636;28;20020;-87
2021/04/26 04:57:34;;;;;;;4.85;2.40;;;;;;;0.45;74.22;92931.13;2106138;28;20468;-86
2021/04/26 04:58:35;;;;;;;3.13;2.33;;;;;;;0.47;74.16;92923.63;2106162;28;20051;-87
2021/04/26 04:59:36;;;;;;;5.43;2.70;;;;;;;0.48;74.06;92930.41;2110114;28;20028;-87
2021/04/26 05:00:36;;;;;;;4.78;2.70;;;;;;;0.53;73.77;92929.34;2102143;28;20043;-87